createdAt,value
2017-07-30T00:01:28.591Z,85.40
2017-07-30T00:03:56.010Z,85.20
2017-07-30T00:06:23.415Z,85.40
2017-07-30T00:08:50.837Z,85.10
2017-07-30T00:11:18.247Z,85.40
2017-07-30T00:13:45.658Z,85.60
2017-07-30T00:16:13.843Z,85.20
2017-07-30T00:18:42.072Z,85.90
2017-07-30T00:21:09.478Z,85.70
2017-07-30T00:23:36.886Z,86.30
2017-07-30T00:26:04.294Z,86.80
2017-07-30T00:28:31.709Z,87.10
2017-07-30T00:30:59.131Z,87.20
2017-07-30T00:33:26.540Z,87.70
2017-07-30T00:35:54.745Z,88.00
2017-07-30T00:38:22.161Z,87.90
2017-07-30T00:40:50.354Z,88.20
2017-07-30T00:43:17.776Z,88.20
2017-07-30T00:45:45.399Z,88.20
2017-07-30T00:48:12.809Z,87.90
2017-07-30T00:50:40.994Z,87.20
2017-07-30T00:53:08.403Z,87.10
2017-07-30T00:55:35.815Z,86.80
2017-07-30T00:58:03.235Z,86.50
2017-07-30T01:00:31.402Z,86.10
2017-07-30T01:02:59.587Z,87.00
2017-07-30T01:05:27.754Z,86.30
2017-07-30T01:07:55.943Z,86.40
2017-07-30T01:10:23.364Z,86.00
2017-07-30T01:12:50.770Z,86.10
2017-07-30T01:15:18.194Z,85.70
2017-07-30T01:17:46.371Z,86.30
2017-07-30T01:20:14.588Z,86.10
2017-07-30T01:22:42.019Z,86.10
2017-07-30T01:25:09.444Z,86.40
2017-07-30T01:27:36.848Z,86.90
2017-07-30T01:30:04.265Z,86.90
2017-07-30T01:32:32.442Z,87.60
2017-07-30T01:35:00.626Z,88.20
2017-07-30T01:37:28.034Z,88.10
2017-07-30T01:39:55.484Z,87.80
2017-07-30T01:42:22.903Z,87.40
2017-07-30T01:44:50.358Z,87.30
2017-07-30T01:47:17.769Z,86.80
2017-07-30T01:49:45.183Z,87.10
2017-07-30T01:52:12.578Z,86.90
2017-07-30T01:54:40.003Z,87.00
2017-07-30T01:57:07.434Z,87.20
2017-07-30T01:59:34.844Z,87.00
2017-07-30T02:02:02.264Z,87.20
2017-07-30T02:04:29.700Z,87.10
2017-07-30T02:06:57.111Z,87.60
2017-07-30T02:09:24.518Z,87.80
2017-07-30T02:11:51.942Z,88.20
2017-07-30T02:14:19.355Z,88.70
2017-07-30T02:16:46.761Z,88.50
2017-07-30T02:19:14.166Z,88.50
2017-07-30T02:21:41.591Z,88.70
2017-07-30T02:24:09.014Z,88.60
2017-07-30T02:26:37.183Z,88.50
2017-07-30T02:29:05.375Z,88.60
2017-07-30T02:31:32.794Z,88.60
2017-07-30T02:34:00.207Z,88.80
2017-07-30T02:36:27.623Z,89.00
2017-07-30T02:38:55.841Z,89.00
2017-07-30T02:41:23.246Z,88.90
2017-07-30T02:43:51.418Z,88.60
2017-07-30T02:46:19.596Z,88.30
2017-07-30T02:48:47.770Z,88.00
2017-07-30T02:51:15.962Z,87.80
2017-07-30T02:53:43.377Z,87.70
2017-07-30T02:56:10.798Z,87.90
2017-07-30T02:58:38.210Z,88.00
2017-07-30T03:01:06.382Z,88.30
2017-07-30T03:03:35.166Z,88.00
2017-07-30T03:06:03.355Z,88.20
2017-07-30T03:08:30.754Z,88.20
2017-07-30T03:10:58.166Z,88.00
2017-07-30T03:13:25.584Z,88.40
2017-07-30T03:15:52.995Z,88.30
2017-07-30T03:18:20.419Z,88.50
2017-07-30T03:20:48.591Z,88.70
2017-07-30T03:23:16.771Z,88.20
2017-07-30T03:25:44.186Z,88.20
2017-07-30T03:28:11.765Z,88.50
2017-07-30T03:30:39.171Z,88.30
2017-07-30T03:33:06.576Z,88.30
2017-07-30T03:35:34.759Z,89.10
2017-07-30T03:38:02.960Z,89.70
2017-07-30T03:40:30.379Z,89.60
2017-07-30T03:42:58.563Z,90.30
2017-07-30T03:45:26.730Z,90.30
2017-07-30T03:47:54.902Z,90.70
2017-07-30T03:50:23.082Z,90.80
2017-07-30T03:52:50.539Z,90.80
2017-07-30T03:55:17.959Z,91.00
2017-07-30T03:57:45.366Z,91.20
2017-07-30T04:00:12.774Z,91.60
2017-07-30T04:02:40.187Z,91.80
2017-07-30T04:05:07.598Z,92.10
2017-07-30T04:07:35.769Z,92.50
2017-07-30T04:10:04.178Z,92.60
2017-07-30T04:12:31.681Z,92.60
2017-07-30T04:14:59.119Z,92.80
2017-07-30T04:17:26.536Z,92.90
2017-07-30T04:19:53.942Z,93.30
2017-07-30T04:22:21.354Z,93.40
2017-07-30T04:24:48.770Z,93.50
2017-07-30T04:27:16.227Z,93.50
2017-07-30T04:29:43.735Z,93.50
2017-07-30T04:32:11.146Z,93.70
2017-07-30T04:34:39.322Z,93.20
2017-07-30T04:37:07.495Z,93.40
2017-07-30T04:39:36.015Z,93.30
2017-07-30T04:42:03.430Z,93.30
2017-07-30T04:44:31.623Z,93.60
2017-07-30T04:46:59.044Z,93.10
2017-07-30T04:49:26.460Z,93.20
2017-07-30T04:51:53.922Z,92.90
2017-07-30T04:54:21.325Z,92.80
2017-07-30T04:56:49.686Z,93.00
2017-07-30T04:59:17.099Z,92.90
2017-07-30T05:01:44.506Z,93.20
2017-07-30T05:04:12.698Z,93.50
2017-07-30T05:06:40.115Z,93.40
2017-07-30T05:09:07.528Z,93.60
2017-07-30T05:11:34.943Z,94.00
2017-07-30T05:14:03.119Z,94.50
2017-07-30T05:16:31.298Z,94.30
2017-07-30T05:18:59.474Z,94.60
2017-07-30T05:21:27.678Z,94.30
2017-07-30T05:23:55.095Z,94.30
2017-07-30T05:26:23.267Z,93.90
2017-07-30T05:28:51.802Z,94.00
2017-07-30T05:31:19.217Z,93.90
2017-07-30T05:33:47.387Z,93.90
2017-07-30T05:36:15.575Z,93.80
2017-07-30T05:38:42.980Z,93.80
2017-07-30T05:41:10.391Z,93.60
2017-07-30T05:43:37.825Z,93.60
2017-07-30T05:46:05.999Z,93.40
2017-07-30T05:48:34.180Z,93.20
2017-07-30T05:51:01.597Z,93.20
2017-07-30T05:53:29.008Z,93.50
2017-07-30T05:55:56.430Z,93.00
2017-07-30T05:58:24.619Z,92.90
2017-07-30T06:00:52.027Z,92.90
2017-07-30T06:03:19.442Z,92.60
2017-07-30T06:05:46.862Z,92.60
2017-07-30T06:08:15.054Z,92.40
2017-07-30T06:10:42.465Z,92.30
2017-07-30T06:13:09.875Z,92.50
2017-07-30T06:15:37.291Z,92.00
2017-07-30T06:18:04.707Z,92.10
2017-07-30T06:20:32.121Z,92.00
2017-07-30T06:23:00.332Z,91.90
2017-07-30T06:25:27.743Z,91.60
2017-07-30T06:27:55.915Z,91.70
2017-07-30T06:30:24.100Z,91.90
2017-07-30T06:32:52.262Z,91.90
2017-07-30T06:35:20.463Z,92.00
2017-07-30T06:37:47.874Z,92.00
2017-07-30T06:40:15.278Z,92.00
2017-07-30T06:42:42.690Z,92.00
2017-07-30T06:45:10.875Z,91.80
2017-07-30T06:47:39.057Z,92.10
2017-07-30T06:50:07.222Z,91.80
2017-07-30T06:52:35.410Z,91.60
2017-07-30T06:55:03.111Z,91.60
2017-07-30T06:57:30.519Z,91.50
2017-07-30T06:59:57.926Z,90.80
2017-07-30T07:02:25.353Z,90.90
2017-07-30T07:04:52.767Z,90.60
2017-07-30T07:07:20.942Z,90.20
2017-07-30T07:09:49.127Z,89.70
2017-07-30T07:12:17.298Z,89.70
2017-07-30T07:14:44.710Z,89.60
2017-07-30T07:17:12.122Z,87.60
2017-07-30T07:19:39.538Z,88.00
2017-07-30T07:22:06.950Z,86.90
2017-07-30T07:24:34.366Z,86.90
2017-07-30T07:27:02.530Z,85.40
2017-07-30T07:29:30.706Z,85.80
2017-07-30T07:31:58.911Z,85.90
2017-07-30T07:34:26.339Z,85.00
2017-07-30T07:36:54.527Z,84.90
2017-07-30T07:39:21.930Z,84.10
2017-07-30T07:41:49.347Z,83.60
2017-07-30T07:44:16.755Z,83.60
2017-07-30T07:46:44.162Z,83.70
2017-07-30T07:49:11.568Z,83.70
2017-07-30T07:51:38.992Z,83.40
2017-07-30T07:54:06.420Z,83.10
2017-07-30T07:56:33.840Z,82.60
2017-07-30T07:59:02.010Z,82.00
2017-07-30T08:01:30.223Z,81.30
2017-07-30T08:03:57.626Z,81.30
2017-07-30T08:06:25.058Z,81.10
2017-07-30T08:08:52.463Z,80.30
2017-07-30T08:11:20.679Z,79.60
2017-07-30T08:13:48.087Z,79.40
2017-07-30T08:16:16.259Z,77.90
2017-07-30T08:18:44.431Z,77.50
2017-07-30T08:21:12.604Z,77.20
2017-07-30T08:23:40.782Z,77.30
2017-07-30T08:26:08.963Z,76.70
2017-07-30T08:28:37.002Z,76.70
2017-07-30T08:33:56.018Z,77.00
2017-07-30T08:36:23.436Z,76.00
2017-07-30T08:38:51.621Z,73.40
2017-07-30T08:41:19.040Z,73.40
2017-07-30T08:43:46.489Z,72.60
2017-07-30T08:46:13.916Z,72.70
2017-07-30T08:48:41.357Z,71.40
2017-07-30T08:51:08.776Z,70.30
2017-07-30T08:53:36.220Z,70.90
2017-07-30T08:56:03.682Z,70.00
2017-07-30T08:58:31.105Z,69.30
2017-07-30T09:00:58.535Z,69.40
2017-07-30T09:03:25.945Z,69.10
2017-07-30T09:05:53.367Z,67.90
2017-07-30T09:08:20.788Z,67.90
2017-07-30T09:10:48.218Z,67.70
2017-07-30T09:13:15.648Z,66.80
2017-07-30T09:15:43.064Z,66.90
2017-07-30T09:18:10.491Z,65.70
2017-07-30T09:20:37.909Z,64.90
2017-07-30T09:23:05.362Z,65.30
2017-07-30T09:25:32.780Z,65.50
2017-07-30T09:28:00.206Z,64.80
2017-07-30T09:30:27.620Z,65.10
2017-07-30T09:32:55.045Z,65.00
2017-07-30T09:35:22.470Z,62.70
2017-07-30T09:37:49.950Z,63.60
2017-07-30T09:40:17.474Z,63.50
2017-07-30T09:42:44.985Z,63.70
2017-07-30T09:45:12.498Z,63.00
2017-07-30T09:47:39.941Z,63.30
2017-07-30T09:50:07.356Z,62.80
2017-07-30T09:52:34.776Z,61.50
2017-07-30T09:55:03.043Z,62.50
2017-07-30T09:57:30.452Z,61.60
2017-07-30T09:59:57.873Z,62.10
2017-07-30T10:02:26.207Z,62.20
2017-07-30T10:04:53.692Z,62.10
2017-07-30T10:07:21.170Z,61.30
2017-07-30T10:09:49.399Z,59.40
2017-07-30T10:12:16.800Z,59.30
2017-07-30T10:14:44.984Z,56.00
2017-07-30T10:17:12.419Z,55.90
2017-07-30T10:19:40.602Z,54.30
2017-07-30T10:22:08.033Z,54.30
2017-07-30T10:24:35.470Z,53.90
2017-07-30T10:27:02.893Z,53.30
2017-07-30T10:29:30.313Z,52.90
2017-07-30T10:31:58.503Z,53.00
2017-07-30T10:34:25.933Z,53.40
2017-07-30T10:36:53.352Z,53.00
2017-07-30T10:39:20.860Z,53.30
2017-07-30T10:41:49.072Z,52.40
2017-07-30T10:44:16.544Z,52.40
2017-07-30T10:46:43.997Z,53.20
2017-07-30T10:49:11.427Z,51.80
2017-07-30T10:51:38.856Z,51.70
2017-07-30T10:54:07.036Z,50.70
2017-07-30T10:56:34.513Z,50.60
2017-07-30T10:59:01.926Z,50.70
2017-07-30T11:01:29.344Z,50.30
2017-07-30T11:03:56.771Z,49.90
2017-07-30T11:06:24.198Z,49.30
2017-07-30T11:08:52.415Z,48.80
2017-07-30T11:11:19.881Z,49.20
2017-07-30T11:13:47.283Z,49.00
2017-07-30T11:16:15.485Z,48.30
2017-07-30T11:18:42.900Z,48.70
2017-07-30T11:21:10.333Z,49.40
2017-07-30T11:23:37.781Z,49.50
2017-07-30T11:26:05.203Z,49.30
2017-07-30T11:28:32.624Z,49.20
2017-07-30T11:31:00.846Z,49.30
2017-07-30T11:33:28.316Z,49.30
2017-07-30T11:35:55.735Z,49.50
2017-07-30T11:38:23.155Z,49.80
2017-07-30T11:40:51.337Z,50.00
2017-07-30T11:43:18.752Z,50.00
2017-07-30T11:45:46.168Z,50.20
2017-07-30T11:48:13.591Z,50.20
2017-07-30T11:50:41.777Z,49.50
2017-07-30T11:53:09.952Z,50.10
2017-07-30T11:55:37.438Z,50.00
2017-07-30T11:58:04.841Z,49.60
2017-07-30T12:00:32.256Z,50.00
2017-07-30T12:02:59.680Z,50.00
2017-07-30T12:05:27.100Z,49.10
2017-07-30T12:07:55.290Z,49.50
2017-07-30T12:10:23.472Z,49.50
2017-07-30T12:12:51.677Z,48.70
2017-07-30T12:15:19.088Z,48.70
2017-07-30T12:17:47.273Z,48.60
2017-07-30T12:20:14.691Z,48.60
2017-07-30T12:22:42.112Z,47.80
2017-07-30T12:25:09.588Z,47.30
2017-07-30T12:27:37.017Z,45.80
2017-07-30T12:30:04.468Z,46.00
2017-07-30T12:32:32.654Z,44.70
2017-07-30T12:35:00.080Z,44.70
2017-07-30T12:37:28.292Z,42.00
2017-07-30T12:39:55.748Z,41.40
2017-07-30T12:42:23.244Z,39.10
2017-07-30T12:44:50.724Z,38.00
2017-07-30T12:47:18.121Z,36.60
2017-07-30T12:49:45.537Z,36.60
2017-07-30T12:52:13.725Z,37.60
2017-07-30T12:54:41.166Z,37.60
2017-07-30T12:57:09.340Z,37.40
2017-07-30T12:59:36.768Z,37.40
2017-07-30T13:02:04.177Z,36.00
2017-07-30T13:04:31.609Z,37.60
2017-07-30T13:06:59.781Z,37.80
2017-07-30T13:09:27.217Z,37.80
2017-07-30T13:11:54.735Z,37.50
2017-07-30T13:14:22.153Z,36.20
2017-07-30T13:16:49.588Z,35.20
2017-07-30T13:19:17.005Z,36.30
2017-07-30T13:21:44.433Z,37.70
2017-07-30T13:24:11.914Z,39.20
2017-07-30T13:26:39.338Z,38.70
2017-07-30T13:29:06.755Z,38.90
2017-07-30T13:31:34.181Z,39.00
2017-07-30T13:34:01.592Z,38.10
2017-07-30T13:36:29.097Z,39.30
2017-07-30T13:38:56.552Z,40.20
2017-07-30T13:41:23.980Z,40.30
2017-07-30T13:43:51.424Z,41.20
2017-07-30T13:46:18.922Z,41.00
2017-07-30T13:48:46.427Z,40.20
2017-07-30T13:51:14.649Z,37.70
2017-07-30T13:53:42.078Z,37.70
2017-07-30T13:56:10.305Z,38.40
2017-07-30T13:58:37.722Z,38.40
2017-07-30T14:01:05.153Z,39.30
2017-07-30T14:03:32.577Z,40.00
2017-07-30T14:06:00.006Z,40.60
2017-07-30T14:08:27.433Z,40.30
2017-07-30T14:10:55.657Z,40.00
2017-07-30T14:13:23.127Z,39.90
2017-07-30T14:15:50.544Z,39.10
2017-07-30T14:18:17.987Z,39.00
2017-07-30T14:20:46.168Z,40.20
2017-07-30T14:23:13.596Z,40.10
2017-07-30T14:25:41.798Z,41.90
2017-07-30T14:28:09.226Z,41.70
2017-07-30T14:30:37.474Z,43.20
2017-07-30T14:33:04.897Z,43.20
2017-07-30T14:35:32.317Z,44.10
2017-07-30T14:37:59.847Z,44.20
2017-07-30T14:40:27.265Z,44.40
2017-07-30T14:42:54.712Z,44.70
2017-07-30T14:45:22.135Z,43.90
2017-07-30T14:47:50.326Z,42.40
2017-07-30T14:50:17.754Z,42.30
2017-07-30T14:52:45.201Z,42.00
2017-07-30T14:55:12.618Z,42.00
2017-07-30T14:57:40.036Z,41.80
2017-07-30T15:00:08.234Z,40.40
2017-07-30T15:02:35.684Z,40.40
2017-07-30T15:05:03.128Z,39.50
2017-07-30T15:07:31.348Z,38.30
2017-07-30T15:09:58.777Z,38.30
2017-07-30T15:12:26.198Z,37.50
2017-07-30T15:14:53.624Z,37.00
2017-07-30T15:17:21.053Z,37.10
2017-07-30T15:19:48.522Z,36.90
2017-07-30T15:22:15.942Z,37.10
2017-07-30T15:24:44.124Z,37.10
2017-07-30T15:27:11.568Z,37.00
2017-07-30T15:29:39.756Z,37.30
2017-07-30T15:32:07.200Z,37.30
2017-07-30T15:34:35.393Z,39.00
2017-07-30T15:37:03.585Z,39.30
2017-07-30T15:39:31.021Z,39.20
2017-07-30T15:41:59.232Z,37.60
2017-07-30T15:44:26.654Z,37.50
2017-07-30T15:46:54.095Z,36.10
2017-07-30T15:49:21.520Z,36.60
2017-07-30T15:51:48.955Z,35.70
2017-07-30T15:54:16.381Z,35.00
2017-07-30T15:56:43.812Z,34.40
2017-07-30T15:59:11.242Z,35.00
2017-07-30T16:01:39.442Z,35.00
2017-07-30T16:04:06.861Z,35.00
2017-07-30T16:06:35.058Z,34.60
2017-07-30T16:09:02.489Z,34.60
2017-07-30T16:11:29.905Z,34.80
2017-07-30T16:13:57.350Z,36.00
2017-07-30T16:16:24.783Z,35.80
2017-07-30T16:18:52.214Z,35.00
2017-07-30T16:21:19.637Z,34.00
2017-07-30T16:23:47.076Z,34.00
2017-07-30T16:26:14.497Z,33.80
2017-07-30T16:28:42.684Z,34.00
2017-07-30T16:31:10.107Z,34.00
2017-07-30T16:33:37.532Z,34.50
2017-07-30T16:36:04.957Z,33.50
2017-07-30T16:38:32.377Z,33.50
2017-07-30T16:41:00.595Z,33.30
2017-07-30T16:43:28.001Z,33.30
2017-07-30T16:45:55.421Z,33.00
2017-07-30T16:48:22.840Z,33.70
2017-07-30T16:50:50.265Z,33.20
2017-07-30T16:53:18.460Z,33.80
2017-07-30T16:55:46.683Z,33.70
2017-07-30T16:58:14.151Z,33.60
2017-07-30T17:00:41.574Z,33.60
2017-07-30T17:03:08.997Z,33.80
2017-07-30T17:05:37.177Z,34.30
2017-07-30T17:08:05.359Z,33.70
2017-07-30T17:10:32.784Z,33.70
2017-07-30T17:13:00.208Z,34.60
2017-07-30T17:15:27.616Z,34.00
2017-07-30T17:17:55.049Z,34.40
2017-07-30T17:20:22.483Z,34.70
2017-07-30T17:22:49.950Z,35.00
2017-07-30T17:25:17.376Z,35.00
2017-07-30T17:27:44.802Z,35.60
2017-07-30T17:30:12.242Z,35.70
2017-07-30T17:32:40.438Z,35.10
2017-07-30T17:35:07.855Z,35.10
2017-07-30T17:37:35.303Z,35.30
2017-07-30T17:40:02.715Z,35.30
2017-07-30T17:42:30.137Z,34.80
2017-07-30T17:44:58.396Z,34.40
2017-07-30T17:47:25.821Z,34.40
2017-07-30T17:49:53.258Z,34.60
2017-07-30T17:52:20.726Z,34.50
2017-07-30T17:54:48.145Z,34.70
2017-07-30T17:57:15.585Z,34.80
2017-07-30T17:59:43.818Z,36.20
2017-07-30T18:02:11.251Z,36.10
2017-07-30T18:04:38.680Z,36.50
2017-07-30T18:07:06.856Z,38.70
2017-07-30T18:09:34.288Z,38.10
2017-07-30T18:12:01.705Z,38.80
2017-07-30T18:17:01.409Z,39.30
2017-07-30T18:19:28.825Z,40.40
2017-07-30T18:21:56.282Z,40.60
2017-07-30T18:24:23.693Z,40.80
2017-07-30T18:26:51.118Z,40.40
2017-07-30T18:29:19.300Z,39.80
2017-07-30T18:31:46.728Z,39.70
2017-07-30T18:34:14.910Z,40.70
2017-07-30T18:36:43.091Z,41.40
2017-07-30T18:39:10.507Z,41.40
2017-07-30T18:41:37.946Z,41.80
2017-07-30T18:44:05.367Z,42.40
2017-07-30T18:46:32.800Z,42.90
2017-07-30T18:49:01.013Z,44.10
2017-07-30T18:51:28.418Z,44.00
2017-07-30T18:53:55.837Z,44.40
2017-07-30T18:56:23.253Z,44.80
2017-07-30T18:58:50.678Z,45.00
2017-07-30T19:01:18.117Z,45.40
2017-07-30T19:03:45.528Z,45.80
2017-07-30T19:06:12.941Z,46.20
2017-07-30T19:08:40.402Z,47.50
2017-07-30T19:11:07.820Z,49.20
2017-07-30T19:13:35.390Z,51.60
2017-07-30T19:16:02.830Z,53.00
2017-07-30T19:18:30.290Z,54.50
2017-07-30T19:20:57.764Z,55.20
2017-07-30T19:23:25.184Z,56.20
2017-07-30T19:25:52.596Z,57.00
2017-07-30T19:28:20.070Z,57.40
2017-07-30T19:30:48.279Z,58.60
2017-07-30T19:33:15.706Z,58.50
2017-07-30T19:35:43.917Z,59.00
2017-07-30T19:38:11.333Z,58.90
2017-07-30T19:40:39.518Z,59.20
2017-07-30T19:43:07.697Z,59.30
2017-07-30T19:45:35.125Z,59.30
2017-07-30T19:48:03.324Z,60.50
2017-07-30T19:50:30.748Z,60.40
2017-07-30T19:52:58.175Z,60.80
2017-07-30T19:55:25.602Z,60.60
2017-07-30T19:57:53.041Z,60.50
2017-07-30T20:00:21.277Z,61.40
2017-07-30T20:02:48.708Z,61.40
2017-07-30T20:05:16.137Z,61.80
2017-07-30T20:07:43.577Z,61.70
2017-07-30T20:10:11.770Z,62.20
2017-07-30T20:12:39.200Z,62.20
2017-07-30T20:15:07.432Z,62.80
2017-07-30T20:17:34.870Z,62.80
2017-07-30T20:20:02.297Z,63.40
2017-07-30T20:22:30.493Z,63.70
2017-07-30T20:24:57.973Z,63.60
2017-07-30T20:27:25.395Z,63.90
2017-07-30T20:29:52.809Z,64.80
2017-07-30T20:32:20.241Z,65.40
2017-07-30T20:34:47.673Z,65.40
2017-07-30T20:37:15.111Z,64.90
2017-07-30T20:39:42.546Z,65.50
2017-07-30T20:42:10.761Z,66.60
2017-07-30T20:44:38.202Z,66.50
2017-07-30T20:47:06.393Z,67.20
2017-07-30T20:49:33.841Z,67.20
2017-07-30T20:52:01.270Z,67.70
2017-07-30T20:54:29.623Z,67.80
2017-07-30T20:56:57.057Z,67.80
2017-07-30T20:59:24.495Z,67.90
2017-07-30T21:01:52.071Z,68.00
2017-07-30T21:04:19.517Z,68.00
2017-07-30T21:06:46.956Z,68.20
2017-07-30T21:09:14.387Z,68.50
2017-07-30T21:11:42.618Z,68.80
2017-07-30T21:14:10.096Z,68.80
2017-07-30T21:16:37.521Z,68.20
2017-07-30T21:19:04.974Z,68.00
2017-07-30T21:21:32.441Z,69.10
2017-07-30T21:23:59.886Z,68.70
2017-07-30T21:26:27.305Z,68.90
2017-07-30T21:28:55.522Z,68.10
2017-07-30T21:31:22.934Z,68.10
2017-07-30T21:33:50.357Z,68.10
2017-07-30T21:36:17.795Z,67.70
2017-07-30T21:38:45.225Z,67.90
2017-07-30T21:41:12.664Z,67.70
2017-07-30T21:43:40.069Z,67.60
2017-07-30T21:46:07.507Z,67.90
2017-07-30T21:48:34.924Z,68.00
2017-07-30T21:51:02.369Z,67.50
2017-07-30T21:53:30.548Z,67.90
2017-07-30T21:55:57.980Z,67.80
2017-07-30T21:58:25.421Z,68.10
2017-07-30T22:00:52.845Z,68.10
2017-07-30T22:03:20.307Z,68.30
2017-07-30T22:05:47.740Z,68.10
2017-07-30T22:08:15.160Z,68.50
2017-07-30T22:10:42.612Z,68.80
2017-07-30T22:13:10.042Z,68.80
2017-07-30T22:15:37.446Z,68.70
2017-07-30T22:18:04.970Z,68.90
2017-07-30T22:20:32.381Z,68.90
2017-07-30T22:22:59.808Z,69.20
2017-07-30T22:25:28.117Z,69.20
2017-07-30T22:27:55.561Z,69.20
2017-07-30T22:30:22.980Z,68.60
2017-07-30T22:32:50.401Z,69.10
2017-07-30T22:35:17.819Z,68.90
2017-07-30T22:37:46.009Z,68.80
2017-07-30T22:40:13.439Z,68.60
2017-07-30T22:42:42.246Z,69.80
2017-07-30T22:45:09.675Z,69.80
2017-07-30T22:47:37.869Z,71.60
2017-07-30T22:50:06.106Z,72.00
2017-07-30T22:52:33.563Z,72.00
2017-07-30T22:55:00.968Z,72.00
2017-07-30T22:57:28.397Z,72.60
2017-07-30T22:59:56.596Z,73.30
2017-07-30T23:02:24.007Z,73.30
2017-07-30T23:04:51.545Z,73.90
2017-07-30T23:07:18.948Z,74.10
2017-07-30T23:12:23.115Z,74.20
2017-07-30T23:14:50.536Z,74.30
2017-07-30T23:17:17.964Z,75.30
2017-07-30T23:19:46.173Z,76.00
2017-07-30T23:22:13.660Z,75.70
2017-07-30T23:24:41.092Z,76.80
2017-07-30T23:27:08.585Z,76.60
2017-07-30T23:29:36.039Z,76.70
2017-07-30T23:32:03.460Z,76.70
2017-07-30T23:34:31.013Z,77.20
2017-07-30T23:36:58.442Z,77.00
2017-07-30T23:39:25.849Z,76.90
2017-07-30T23:41:53.263Z,77.60
2017-07-30T23:44:21.533Z,78.90
2017-07-30T23:46:49.712Z,78.90
2017-07-30T23:49:17.911Z,79.70
2017-07-30T23:51:45.337Z,79.50
2017-07-30T23:54:13.518Z,80.50
2017-07-30T23:56:40.967Z,80.50
2017-07-30T23:59:08.408Z,80.90
